Time,TemperatureF,DewpointF,PressureIn,WindDirection,WindDirectionDegrees,WindSpeedMPH,WindSpeedGustMPH,Humidity,HourlyPrecipIn,Conditions,Clouds,dailyrainin,SoftwareType,DateUTC
2013-03-25 00:00:00,26.7,21.7,29.78,North,357,0.0,0.0,81,0.00,,,0.00,Wunderground v.1.15,2013-03-25 04:00:00,
2013-03-25 00:01:00,26.6,21.6,29.78,North,357,0.0,0.0,81,0.00,,,0.00,Wunderground v.1.15,2013-03-25 04:01:00,
2013-03-25 00:03:00,26.6,21.6,29.78,North,357,0.0,0.0,81,0.00,,,0.00,Wunderground v.1.15,2013-03-25 04:03:00,
2013-03-25 00:07:00,26.4,21.4,29.78,North,357,0.0,0.0,81,0.00,,,0.00,Wunderground v.1.15,2013-03-25 04:07:00,
2013-03-25 00:12:00,26.3,21.6,29.77,North,357,0.0,0.0,82,0.00,,,0.00,Wunderground v.1.15,2013-03-25 04:12:00,
2013-03-25 00:17:00,26.0,21.3,29.77,North,357,0.0,0.0,82,0.00,,,0.00,Wunderground v.1.15,2013-03-25 04:17:00,
2013-03-25 00:23:00,26.0,21.3,29.77,North,357,0.0,0.0,82,0.00,,,0.00,Wunderground v.1.15,2013-03-25 04:23:00,
2013-03-25 00:28:00,26.0,21.5,29.77,North,357,0.0,0.0,83,0.00,,,0.00,Wunderground v.1.15,2013-03-25 04:28:00,
2013-03-25 00:33:00,25.8,21.6,29.77,North,357,0.0,0.0,84,0.00,,,0.00,Wunderground v.1.15,2013-03-25 04:33:00,
2013-03-25 00:38:00,25.7,21.5,29.77,North,357,0.0,0.0,84,0.00,,,0.00,Wunderground v.1.15,2013-03-25 04:38:00,
2013-03-25 00:43:00,25.7,21.5,29.77,North,357,0.0,0.0,84,0.00,,,0.00,Wunderground v.1.15,2013-03-25 04:43:00,
2013-03-25 00:49:00,25.8,21.6,29.77,North,357,0.0,0.0,84,0.00,,,0.00,Wunderground v.1.15,2013-03-25 04:49:00,
2013-03-25 00:54:00,25.8,21.9,29.77,North,357,0.0,0.0,85,0.00,,,0.00,Wunderground v.1.15,2013-03-25 04:54:00,
2013-03-25 00:59:00,26.0,22.1,29.77,North,357,0.0,0.0,85,0.00,,,0.00,Wunderground v.1.15,2013-03-25 04:59:00,
2013-03-25 01:05:00,25.8,21.9,29.77,North,357,0.0,0.0,85,0.00,,,0.00,Wunderground v.1.15,2013-03-25 05:05:00,
2013-03-25 01:10:00,25.8,21.9,29.77,North,357,0.0,0.0,85,0.00,,,0.00,Wunderground v.1.15,2013-03-25 05:10:00,
2013-03-25 01:16:00,25.7,22.1,29.76,North,357,0.0,0.0,86,0.00,,,0.00,Wunderground v.1.15,2013-03-25 05:16:00,
2013-03-25 01:22:00,25.8,22.2,29.76,North,357,0.0,0.0,86,0.00,,,0.00,Wunderground v.1.15,2013-03-25 05:22:00,
2013-03-25 01:27:00,25.8,21.9,29.76,North,357,0.0,0.0,85,0.00,,,0.00,Wunderground v.1.15,2013-03-25 05:27:00,
2013-03-25 01:33:00,25.7,21.8,29.76,North,357,0.0,0.0,85,0.00,,,0.00,Wunderground v.1.15,2013-03-25 05:33:00,
2013-03-25 01:38:00,25.6,21.7,29.76,North,357,0.0,0.0,85,0.00,,,0.00,Wunderground v.1.15,2013-03-25 05:38:00,
2013-03-25 01:43:00,25.3,21.4,29.76,North,357,0.0,0.0,85,0.00,,,0.00,Wunderground v.1.15,2013-03-25 05:43:00,
2013-03-25 01:49:00,25.3,21.4,29.76,North,357,0.0,0.0,85,0.00,,,0.00,Wunderground v.1.15,2013-03-25 05:49:00,
2013-03-25 01:54:00,25.3,21.4,29.76,North,357,0.0,0.0,85,0.00,,,0.00,Wunderground v.1.15,2013-03-25 05:54:00,
2013-03-25 01:59:00,25.4,21.2,29.76,North,357,0.0,0.0,84,0.00,,,0.00,Wunderground v.1.15,2013-03-25 05:59:00,
2013-03-25 02:04:00,25.3,21.4,29.76,North,357,0.0,0.0,85,0.00,,,0.00,Wunderground v.1.15,2013-03-25 06:04:00,
2013-03-25 02:09:00,25.1,21.2,29.76,North,357,0.0,0.0,85,0.00,,,0.00,Wunderground v.1.15,2013-03-25 06:09:00,
2013-03-25 02:15:00,24.8,20.9,29.75,North,357,0.0,0.0,85,0.00,,,0.00,Wunderground v.1.15,2013-03-25 06:15:00,
2013-03-25 02:19:00,25.0,21.1,29.75,North,357,0.0,0.0,85,0.00,,,0.00,Wunderground v.1.15,2013-03-25 06:19:00,
2013-03-25 02:25:00,24.8,21.2,29.75,North,357,0.0,0.0,86,0.00,,,0.00,Wunderground v.1.15,2013-03-25 06:25:00,
2013-03-25 02:30:00,24.8,21.2,29.75,North,357,0.0,0.0,86,0.00,,,0.00,Wunderground v.1.15,2013-03-25 06:30:00,
2013-03-25 02:35:00,24.7,21.4,29.75,North,357,0.0,0.0,87,0.00,,,0.00,Wunderground v.1.15,2013-03-25 06:35:00,
2013-03-25 02:40:00,24.7,21.4,29.75,North,357,0.0,0.0,87,0.00,,,0.00,Wunderground v.1.15,2013-03-25 06:40:00,
2013-03-25 02:45:00,24.7,21.4,29.75,North,357,0.0,0.0,87,0.00,,,0.00,Wunderground v.1.15,2013-03-25 06:45:00,
2013-03-25 02:50:00,24.5,21.5,29.75,North,357,0.0,0.0,88,0.00,,,0.00,Wunderground v.1.15,2013-03-25 06:50:00,
2013-03-25 02:55:00,24.4,21.4,29.75,North,357,0.0,0.0,88,0.00,,,0.00,Wunderground v.1.15,2013-03-25 06:55:00,
2013-03-25 03:01:00,24.2,21.2,29.74,North,357,0.0,0.0,88,0.00,,,0.00,Wunderground v.1.15,2013-03-25 07:01:00,
2013-03-25 03:06:00,24.1,21.3,29.74,North,357,0.0,0.0,89,0.00,,,0.00,Wunderground v.1.15,2013-03-25 07:06:00,
2013-03-25 03:11:00,23.8,21.0,29.75,North,357,0.0,0.0,89,0.00,,,0.00,Wunderground v.1.15,2013-03-25 07:11:00,
2013-03-25 03:17:00,23.8,21.3,29.75,North,357,0.0,0.0,90,0.00,,,0.00,Wunderground v.1.15,2013-03-25 07:17:00,
2013-03-25 03:22:00,23.8,21.3,29.75,North,357,0.0,0.0,90,0.00,,,0.00,Wunderground v.1.15,2013-03-25 07:22:00,
2013-03-25 03:27:00,23.6,21.1,29.75,North,357,0.0,0.0,90,0.00,,,0.00,Wunderground v.1.15,2013-03-25 07:27:00,
2013-03-25 03:32:00,23.5,21.0,29.75,North,357,0.0,0.0,90,0.00,,,0.00,Wunderground v.1.15,2013-03-25 07:32:00,
2013-03-25 03:38:00,23.3,20.8,29.75,North,357,0.0,0.0,90,0.00,,,0.00,Wunderground v.1.15,2013-03-25 07:38:00,
2013-03-25 03:43:00,23.2,21.0,29.74,North,357,0.0,0.0,91,0.00,,,0.00,Wunderground v.1.15,2013-03-25 07:43:00,
2013-03-25 03:48:00,23.3,21.1,29.74,North,357,0.0,0.0,91,0.00,,,0.00,Wunderground v.1.15,2013-03-25 07:48:00,
2013-03-25 03:53:00,23.3,20.8,29.74,North,357,0.0,0.0,90,0.00,,,0.00,Wunderground v.1.15,2013-03-25 07:53:00,
2013-03-25 03:58:00,23.2,21.0,29.74,North,357,0.0,0.0,91,0.00,,,0.00,Wunderground v.1.15,2013-03-25 07:58:00,
2013-03-25 04:03:00,23.2,21.0,29.74,North,357,0.0,0.0,91,0.00,,,0.00,Wunderground v.1.15,2013-03-25 08:03:00,
2013-03-25 04:08:00,23.2,21.0,29.74,North,357,0.0,0.0,91,0.00,,,0.00,Wunderground v.1.15,2013-03-25 08:08:00,
2013-03-25 04:13:00,22.9,20.4,29.74,North,357,0.0,0.0,90,0.00,,,0.00,Wunderground v.1.15,2013-03-25 08:13:00,
2013-03-25 04:19:00,22.7,20.2,29.74,North,357,0.0,0.0,90,0.00,,,0.00,Wunderground v.1.15,2013-03-25 08:19:00,
2013-03-25 04:24:00,22.5,20.3,29.74,North,357,0.0,0.0,91,0.00,,,0.00,Wunderground v.1.15,2013-03-25 08:24:00,
2013-03-25 04:29:00,22.7,20.5,29.73,North,357,0.0,0.0,91,0.00,,,0.00,Wunderground v.1.15,2013-03-25 08:29:00,
2013-03-25 04:34:00,22.7,20.5,29.73,North,357,0.0,0.0,91,0.00,,,0.00,Wunderground v.1.15,2013-03-25 08:34:00,
2013-03-25 04:39:00,22.7,20.5,29.73,North,357,0.0,0.0,91,0.00,,,0.00,Wunderground v.1.15,2013-03-25 08:39:00,
2013-03-25 04:45:00,22.4,19.6,29.73,North,357,0.0,0.0,89,0.00,,,0.00,Wunderground v.1.15,2013-03-25 08:45:00,
2013-03-25 04:50:00,22.2,19.7,29.73,North,357,0.0,0.0,90,0.00,,,0.00,Wunderground v.1.15,2013-03-25 08:50:00,
2013-03-25 04:55:00,22.4,20.2,29.73,North,357,0.0,0.0,91,0.00,,,0.00,Wunderground v.1.15,2013-03-25 08:55:00,
2013-03-25 05:01:00,22.5,20.3,29.73,North,357,0.0,0.0,91,0.00,,,0.00,Wunderground v.1.15,2013-03-25 09:01:00,
2013-03-25 05:06:00,22.5,20.3,29.73,North,357,0.0,0.0,91,0.00,,,0.00,Wunderground v.1.15,2013-03-25 09:06:00,
2013-03-25 05:11:00,22.4,20.2,29.72,North,357,0.0,0.0,91,0.00,,,0.00,Wunderground v.1.15,2013-03-25 09:11:00,
2013-03-25 05:16:00,22.4,19.9,29.72,North,357,0.0,0.0,90,0.00,,,0.00,Wunderground v.1.15,2013-03-25 09:16:00,
2013-03-25 05:22:00,22.5,20.0,29.72,North,357,0.0,0.0,90,0.00,,,0.00,Wunderground v.1.15,2013-03-25 09:22:00,
2013-03-25 05:28:00,22.4,19.9,29.72,North,357,0.0,0.0,90,0.00,,,0.00,Wunderground v.1.15,2013-03-25 09:28:00,
2013-03-25 05:33:00,22.4,19.9,29.72,North,357,0.0,0.0,90,0.00,,,0.00,Wunderground v.1.15,2013-03-25 09:33:00,
2013-03-25 05:38:00,22.2,19.7,29.72,North,357,0.0,0.0,90,0.00,,,0.00,Wunderground v.1.15,2013-03-25 09:38:00,
2013-03-25 05:43:00,22.2,19.7,29.73,North,357,0.0,0.0,90,0.00,,,0.00,Wunderground v.1.15,2013-03-25 09:43:00,
2013-03-25 05:48:00,22.4,19.9,29.73,North,357,0.0,0.0,90,0.00,,,0.00,Wunderground v.1.15,2013-03-25 09:48:00,
2013-03-25 05:53:00,22.4,19.9,29.73,North,357,0.0,0.0,90,0.00,,,0.00,Wunderground v.1.15,2013-03-25 09:53:00,
2013-03-25 05:58:00,22.2,19.7,29.72,North,357,0.0,0.0,90,0.00,,,0.00,Wunderground v.1.15,2013-03-25 09:58:00,
2013-03-25 06:04:00,22.2,19.7,29.72,North,357,0.0,0.0,90,0.00,,,0.00,Wunderground v.1.15,2013-03-25 10:04:00,
2013-03-25 06:09:00,22.2,19.7,29.72,North,357,0.0,0.0,90,0.00,,,0.00,Wunderground v.1.15,2013-03-25 10:09:00,
2013-03-25 06:14:00,21.9,19.4,29.72,North,357,0.0,0.0,90,0.00,,,0.00,Wunderground v.1.15,2013-03-25 10:14:00,
2013-03-25 06:19:00,21.8,19.3,29.72,North,357,0.0,0.0,90,0.00,,,0.00,Wunderground v.1.15,2013-03-25 10:19:00,
2013-03-25 06:24:00,21.8,19.3,29.72,North,357,0.0,0.0,90,0.00,,,0.00,Wunderground v.1.15,2013-03-25 10:24:00,
2013-03-25 06:29:00,21.8,19.6,29.72,North,357,0.0,0.0,91,0.00,,,0.00,Wunderground v.1.15,2013-03-25 10:29:00,
2013-03-25 06:35:00,21.8,19.6,29.72,North,357,0.0,0.0,91,0.00,,,0.00,Wunderground v.1.15,2013-03-25 10:35:00,
2013-03-25 06:40:00,21.6,19.4,29.72,North,357,0.0,0.0,91,0.00,,,0.00,Wunderground v.1.15,2013-03-25 10:40:00,
2013-03-25 06:45:00,21.6,19.4,29.71,North,357,0.0,0.0,91,0.00,,,0.00,Wunderground v.1.15,2013-03-25 10:45:00,
2013-03-25 06:50:00,21.4,19.2,29.71,North,357,0.0,0.0,91,0.00,,,0.00,Wunderground v.1.15,2013-03-25 10:50:00,
2013-03-25 06:55:00,21.4,19.2,29.71,North,357,0.0,0.0,91,0.00,,,0.00,Wunderground v.1.15,2013-03-25 10:55:00,
2013-03-25 07:00:00,21.6,19.4,29.71,North,357,0.0,0.0,91,0.00,,,0.00,Wunderground v.1.15,2013-03-25 11:00:00,
2013-03-25 07:05:00,21.6,19.4,29.71,North,357,0.0,0.0,91,0.00,,,0.00,Wunderground v.1.15,2013-03-25 11:05:00,
2013-03-25 07:11:00,21.6,19.4,29.71,North,357,0.0,0.0,91,0.00,,,0.00,Wunderground v.1.15,2013-03-25 11:11:00,
2013-03-25 07:16:00,21.8,19.6,29.72,North,357,0.0,0.0,91,0.00,,,0.00,Wunderground v.1.15,2013-03-25 11:16:00,
2013-03-25 07:21:00,22.1,20.1,29.72,North,357,0.0,0.0,92,0.00,,,0.00,Wunderground v.1.15,2013-03-25 11:21:00,
2013-03-25 07:27:00,22.2,20.0,29.72,North,357,0.0,0.0,91,0.00,,,0.00,Wunderground v.1.15,2013-03-25 11:27:00,
2013-03-25 07:32:00,22.5,20.0,29.72,North,357,0.0,0.0,90,0.00,,,0.00,Wunderground v.1.15,2013-03-25 11:32:00,
2013-03-25 07:37:00,22.7,20.2,29.72,North,357,0.0,0.0,90,0.00,,,0.00,Wunderground v.1.15,2013-03-25 11:37:00,
2013-03-25 07:42:00,23.0,20.5,29.72,North,357,0.0,0.0,90,0.00,,,0.00,Wunderground v.1.15,2013-03-25 11:42:00,
2013-03-25 07:47:00,23.3,20.5,29.72,North,357,0.0,0.0,89,0.00,,,0.00,Wunderground v.1.15,2013-03-25 11:47:00,
2013-03-25 07:52:00,23.6,20.8,29.72,North,357,0.0,0.0,89,0.00,,,0.00,Wunderground v.1.15,2013-03-25 11:52:00,
2013-03-25 07:57:00,23.9,20.9,29.73,North,357,0.0,0.0,88,0.00,,,0.00,Wunderground v.1.15,2013-03-25 11:57:00,
2013-03-25 08:02:00,24.2,20.9,29.73,North,357,0.0,0.0,87,0.00,,,0.00,Wunderground v.1.15,2013-03-25 12:02:00,
2013-03-25 08:07:00,24.5,20.9,29.73,North,357,0.0,0.0,86,0.00,,,0.00,Wunderground v.1.15,2013-03-25 12:07:00,
2013-03-25 08:13:00,25.0,21.1,29.73,North,357,0.0,0.0,85,0.00,,,0.00,Wunderground v.1.15,2013-03-25 12:13:00,
2013-03-25 08:18:00,25.4,21.2,29.73,North,357,0.0,0.0,84,0.00,,,0.00,Wunderground v.1.15,2013-03-25 12:18:00,
2013-03-25 08:23:00,25.8,21.3,29.73,North,357,0.0,0.0,83,0.00,,,0.00,Wunderground v.1.15,2013-03-25 12:23:00,
2013-03-25 08:28:00,26.1,21.4,29.73,North,357,0.0,0.0,82,0.00,,,0.00,Wunderground v.1.15,2013-03-25 12:28:00,
2013-03-25 08:34:00,26.6,21.8,29.73,North,357,0.0,0.0,82,0.00,,,0.00,Wunderground v.1.15,2013-03-25 12:34:00,
2013-03-25 08:39:00,26.9,21.6,29.73,North,357,0.0,0.0,80,0.00,,,0.00,Wunderground v.1.15,2013-03-25 12:39:00,
2013-03-25 08:44:00,27.5,22.1,29.73,North,357,0.0,0.0,80,0.00,,,0.00,Wunderground v.1.15,2013-03-25 12:44:00,
2013-03-25 08:49:00,27.8,22.4,29.73,North,357,0.0,0.0,80,0.00,,,0.00,Wunderground v.1.15,2013-03-25 12:49:00,
2013-03-25 08:54:00,28.1,22.7,29.73,North,357,0.0,0.0,80,0.00,,,0.00,Wunderground v.1.15,2013-03-25 12:54:00,
2013-03-25 08:59:00,28.5,23.1,29.72,North,357,0.0,0.0,80,0.00,,,0.00,Wunderground v.1.15,2013-03-25 12:59:00,
2013-03-25 09:04:00,29.0,23.0,29.72,North,357,0.0,0.0,78,0.00,,,0.00,Wunderground v.1.15,2013-03-25 13:04:00,
2013-03-25 09:09:00,29.3,23.0,29.72,North,357,0.0,0.0,77,0.00,,,0.00,Wunderground v.1.15,2013-03-25 13:09:00,
2013-03-25 09:14:00,29.5,23.2,29.72,North,357,0.0,0.0,77,0.00,,,0.00,Wunderground v.1.15,2013-03-25 13:14:00,
2013-03-25 09:20:00,30.0,23.4,29.72,North,357,0.0,0.0,76,0.00,,,0.00,Wunderground v.1.15,2013-03-25 13:20:00,
2013-03-25 09:25:00,30.9,23.9,29.72,North,357,1.0,1.0,75,0.00,,,0.00,Wunderground v.1.15,2013-03-25 13:25:00,
2013-03-25 09:30:00,31.8,24.1,29.71,North,357,0.0,1.0,73,0.00,,,0.00,Wunderground v.1.15,2013-03-25 13:30:00,
2013-03-25 09:35:00,32.9,24.9,29.71,North,358,0.0,0.0,72,0.00,,,0.00,Wunderground v.1.15,2013-03-25 13:35:00,
2013-03-25 09:40:00,34.0,25.2,29.71,North,357,0.0,2.0,70,0.00,,,0.00,Wunderground v.1.15,2013-03-25 13:40:00,
2013-03-25 09:45:00,34.4,25.6,29.71,NNE,25,1.0,2.0,70,0.00,,,0.00,Wunderground v.1.15,2013-03-25 13:45:00,
2013-03-25 09:51:00,34.9,25.4,29.71,NNE,23,1.0,2.0,68,0.00,,,0.00,Wunderground v.1.15,2013-03-25 13:51:00,
2013-03-25 09:56:00,35.3,25.8,29.70,North,359,0.0,1.0,68,0.00,,,0.00,Wunderground v.1.15,2013-03-25 13:56:00,
2013-03-25 10:02:00,35.5,26.0,29.70,NE,35,0.0,2.0,68,0.00,,,0.00,Wunderground v.1.15,2013-03-25 14:02:00,
2013-03-25 10:07:00,35.9,26.4,29.70,NE,35,0.0,1.0,68,0.00,,,0.00,Wunderground v.1.15,2013-03-25 14:07:00,
2013-03-25 10:12:00,36.2,27.0,29.69,North,359,0.0,2.0,69,0.00,,,0.00,Wunderground v.1.15,2013-03-25 14:12:00,
2013-03-25 10:17:00,36.6,27.4,29.69,NNE,28,0.0,1.0,69,0.00,,,0.00,Wunderground v.1.15,2013-03-25 14:17:00,
2013-03-25 10:22:00,37.2,27.2,29.69,NNE,28,0.0,2.0,67,0.00,,,0.00,Wunderground v.1.15,2013-03-25 14:22:00,
2013-03-25 10:27:00,37.5,27.2,29.69,NNE,28,0.0,2.0,66,0.00,,,0.00,Wunderground v.1.15,2013-03-25 14:27:00,
2013-03-25 10:33:00,38.2,27.8,29.69,North,357,1.0,4.0,66,0.00,,,0.00,Wunderground v.1.15,2013-03-25 14:33:00,
2013-03-25 10:38:00,38.3,27.6,29.69,NE,45,1.0,2.0,65,0.00,,,0.00,Wunderground v.1.15,2013-03-25 14:38:00,
2013-03-25 10:43:00,38.3,27.9,29.68,North,6,0.0,6.0,66,0.00,,,0.00,Wunderground v.1.15,2013-03-25 14:43:00,
2013-03-25 10:48:00,38.3,27.9,29.68,NNE,23,1.0,8.0,66,0.00,,,0.00,Wunderground v.1.15,2013-03-25 14:48:00,
2013-03-25 10:54:00,38.9,27.8,29.68,North,1,0.0,8.0,64,0.00,,,0.00,Wunderground v.1.15,2013-03-25 14:54:00,
2013-03-25 10:59:00,39.5,28.3,29.67,NNE,28,2.0,7.0,64,0.00,,,0.00,Wunderground v.1.15,2013-03-25 14:59:00,
2013-03-25 11:04:00,40.1,28.9,29.67,NNE,25,4.0,7.0,64,0.00,,,0.00,Wunderground v.1.15,2013-03-25 15:04:00,
2013-03-25 11:09:00,40.1,28.5,29.67,North,2,4.0,11.0,63,0.00,,,0.00,Wunderground v.1.15,2013-03-25 15:09:00,
2013-03-25 11:14:00,39.8,28.2,29.67,North,11,0.0,11.0,63,0.00,,,0.00,Wunderground v.1.15,2013-03-25 15:14:00,
2013-03-25 11:19:00,39.8,28.2,29.67,NE,50,1.0,7.0,63,0.00,,,0.00,Wunderground v.1.15,2013-03-25 15:19:00,
2013-03-25 11:24:00,39.6,28.0,29.67,NNE,19,0.0,7.0,63,0.00,,,0.00,Wunderground v.1.15,2013-03-25 15:24:00,
2013-03-25 11:30:00,39.5,27.9,29.66,North,358,1.0,6.0,63,0.00,,,0.00,Wunderground v.1.15,2013-03-25 15:30:00,
2013-03-25 11:35:00,39.5,28.3,29.66,NE,35,1.0,6.0,64,0.00,,,0.00,Wunderground v.1.15,2013-03-25 15:35:00,
2013-03-25 11:40:00,39.6,28.0,29.66,North,358,0.0,6.0,63,0.00,,,0.00,Wunderground v.1.15,2013-03-25 15:40:00,
2013-03-25 11:45:00,39.6,27.2,29.65,NNE,30,2.0,2.0,61,0.00,,,0.00,Wunderground v.1.15,2013-03-25 15:45:00,
2013-03-25 11:50:00,39.6,28.0,29.65,NNE,30,1.0,6.0,63,0.00,,,0.00,Wunderground v.1.15,2013-03-25 15:50:00,
2013-03-25 11:55:00,39.8,27.8,29.65,NE,39,0.0,1.0,62,0.00,,,0.00,Wunderground v.1.15,2013-03-25 15:55:00,
2013-03-25 12:01:00,39.9,27.5,29.65,NNE,15,1.0,4.0,61,0.00,,,0.00,Wunderground v.1.15,2013-03-25 16:01:00,
2013-03-25 12:06:00,40.2,27.8,29.65,NNE,12,2.0,2.0,61,0.00,,,0.00,Wunderground v.1.15,2013-03-25 16:06:00,
2013-03-25 12:11:00,40.8,28.0,29.64,NE,53,4.0,7.0,60,0.26,,,0.02,Wunderground v.1.15,2013-03-25 16:11:00,
2013-03-25 12:16:00,41.2,27.5,29.64,North,9,0.0,3.0,58,0.09,,,0.02,Wunderground v.1.15,2013-03-25 16:16:00,
2013-03-25 12:21:00,41.3,27.2,29.64,North,11,0.0,4.0,57,0.05,,,0.02,Wunderground v.1.15,2013-03-25 16:21:00,
2013-03-25 12:27:00,40.5,27.3,29.63,North,9,2.0,4.0,59,0.00,,,0.02,Wunderground v.1.15,2013-03-25 16:27:00,
2013-03-25 12:32:00,40.5,26.9,29.63,North,11,2.0,4.0,58,0.00,,,0.02,Wunderground v.1.15,2013-03-25 16:32:00,
2013-03-25 12:37:00,40.6,26.1,29.63,North,357,2.0,7.0,56,0.00,,,0.02,Wunderground v.1.15,2013-03-25 16:37:00,
2013-03-25 12:42:00,40.6,25.7,29.63,NNE,23,2.0,7.0,55,0.00,,,0.02,Wunderground v.1.15,2013-03-25 16:42:00,
2013-03-25 12:47:00,40.8,26.7,29.63,NE,35,0.0,2.0,57,0.00,,,0.02,Wunderground v.1.15,2013-03-25 16:47:00,
2013-03-25 12:53:00,41.1,26.6,29.63,North,358,4.0,7.0,56,0.00,,,0.02,Wunderground v.1.15,2013-03-25 16:53:00,
2013-03-25 12:58:00,41.3,25.9,29.62,North,357,4.0,8.0,54,0.00,,,0.02,Wunderground v.1.15,2013-03-25 16:58:00,
2013-03-25 13:03:00,41.3,26.8,29.62,NNW,348,1.0,8.0,56,0.00,,,0.02,Wunderground v.1.15,2013-03-25 17:03:00,
2013-03-25 13:08:00,41.1,26.1,29.62,North,358,1.0,4.0,55,0.00,,,0.02,Wunderground v.1.15,2013-03-25 17:08:00,
2013-03-25 13:13:00,40.9,26.0,29.62,North,8,2.0,7.0,55,0.00,,,0.02,Wunderground v.1.15,2013-03-25 17:13:00,
2013-03-25 13:18:00,40.8,25.9,29.62,NNE,14,0.0,4.0,55,0.00,,,0.02,Wunderground v.1.15,2013-03-25 17:18:00,
2013-03-25 13:23:00,41.1,26.1,29.62,North,4,0.0,7.0,55,0.00,,,0.02,Wunderground v.1.15,2013-03-25 17:23:00,
2013-03-25 13:29:00,40.9,26.8,29.62,NNE,16,2.0,2.0,57,0.00,,,0.02,Wunderground v.1.15,2013-03-25 17:29:00,
2013-03-25 13:34:00,41.1,25.7,29.62,North,357,0.0,6.0,54,0.00,,,0.02,Wunderground v.1.15,2013-03-25 17:34:00,
2013-03-25 13:39:00,40.9,26.0,29.62,NNE,18,1.0,7.0,55,0.00,,,0.02,Wunderground v.1.15,2013-03-25 17:39:00,
2013-03-25 13:44:00,40.8,25.9,29.61,North,351,4.0,7.0,55,0.00,,,0.02,Wunderground v.1.15,2013-03-25 17:44:00,
2013-03-25 13:49:00,40.5,25.6,29.61,North,350,0.0,4.0,55,0.00,,,0.02,Wunderground v.1.15,2013-03-25 17:49:00,
2013-03-25 13:54:00,40.3,26.3,29.61,NE,49,1.0,4.0,57,0.00,,,0.02,Wunderground v.1.15,2013-03-25 17:54:00,
2013-03-25 13:59:00,40.3,25.8,29.61,NE,49,1.0,2.0,56,0.00,,,0.02,Wunderground v.1.15,2013-03-25 17:59:00,
2013-03-25 14:04:00,40.5,26.0,29.61,North,359,0.0,4.0,56,0.00,,,0.03,Wunderground v.1.15,2013-03-25 18:04:00,
2013-03-25 14:09:00,40.5,25.6,29.61,North,358,0.0,1.0,55,0.00,,,0.03,Wunderground v.1.15,2013-03-25 18:09:00,
2013-03-25 14:14:00,40.5,25.6,29.60,North,358,1.0,4.0,55,0.00,,,0.03,Wunderground v.1.15,2013-03-25 18:14:00,
2013-03-25 14:19:00,40.3,25.4,29.60,NNE,26,0.0,4.0,55,0.00,,,0.03,Wunderground v.1.15,2013-03-25 18:19:00,
2013-03-25 14:24:00,40.6,25.2,29.60,North,4,2.0,4.0,54,0.00,,,0.03,Wunderground v.1.15,2013-03-25 18:24:00,
2013-03-25 14:29:00,40.6,25.2,29.60,NE,49,4.0,8.0,54,0.00,,,0.03,Wunderground v.1.15,2013-03-25 18:29:00,
2013-03-25 14:34:00,40.5,25.1,29.60,NE,50,4.0,8.0,54,0.00,,,0.03,Wunderground v.1.15,2013-03-25 18:34:00,
2013-03-25 14:39:00,40.5,25.6,29.60,North,357,1.0,4.0,55,0.00,,,0.03,Wunderground v.1.15,2013-03-25 18:39:00,
2013-03-25 14:44:00,41.1,25.3,29.59,NE,54,0.0,7.0,53,0.00,,,0.03,Wunderground v.1.15,2013-03-25 18:44:00,
2013-03-25 14:50:00,41.1,25.7,29.59,NE,35,1.0,7.0,54,0.00,,,0.03,Wunderground v.1.15,2013-03-25 18:50:00,
2013-03-25 14:55:00,41.2,24.9,29.59,North,351,4.0,7.0,52,0.00,,,0.04,Wunderground v.1.15,2013-03-25 18:55:00,
2013-03-25 15:00:00,41.5,24.7,29.59,NNE,23,2.0,7.0,51,0.00,,,0.04,Wunderground v.1.15,2013-03-25 19:00:00,
2013-03-25 15:05:00,41.2,24.9,29.59,NNE,25,4.0,8.0,52,0.00,,,0.04,Wunderground v.1.15,2013-03-25 19:05:00,
2013-03-25 15:10:00,41.2,25.3,29.59,NNE,28,2.0,8.0,53,0.00,,,0.04,Wunderground v.1.15,2013-03-25 19:10:00,
2013-03-25 15:15:00,41.3,25.4,29.58,NNE,19,2.0,3.0,53,0.00,,,0.04,Wunderground v.1.15,2013-03-25 19:15:00,
2013-03-25 15:20:00,41.6,24.8,29.58,NNE,19,0.0,4.0,51,0.00,,,0.04,Wunderground v.1.15,2013-03-25 19:20:00,
2013-03-25 15:25:00,41.3,25.0,29.58,NNE,29,0.0,2.0,52,0.00,,,0.04,Wunderground v.1.15,2013-03-25 19:25:00,
2013-03-25 15:30:00,41.3,25.0,29.57,NNE,16,4.0,7.0,52,0.00,,,0.04,Wunderground v.1.15,2013-03-25 19:30:00,
2013-03-25 15:35:00,41.3,25.0,29.57,NNE,22,2.0,2.0,52,0.00,,,0.04,Wunderground v.1.15,2013-03-25 19:35:00,
2013-03-25 15:40:00,41.3,25.9,29.57,North,359,2.0,4.0,54,0.00,,,0.04,Wunderground v.1.15,2013-03-25 19:40:00,
2013-03-25 15:45:00,41.3,25.0,29.56,NE,43,2.0,6.0,52,0.00,,,0.05,Wunderground v.1.15,2013-03-25 19:45:00,
2013-03-25 15:51:00,41.2,25.3,29.56,North,358,0.0,6.0,53,0.00,,,0.05,Wunderground v.1.15,2013-03-25 19:51:00,
2013-03-25 15:56:00,41.2,24.9,29.55,NE,43,1.0,2.0,52,0.00,,,0.05,Wunderground v.1.15,2013-03-25 19:56:00,
2013-03-25 16:01:00,40.9,25.1,29.55,North,355,4.0,6.0,53,0.00,,,0.05,Wunderground v.1.15,2013-03-25 20:01:00,
2013-03-25 16:07:00,40.8,25.9,29.55,North,357,1.0,2.0,55,0.00,,,0.05,Wunderground v.1.15,2013-03-25 20:07:00,
2013-03-25 16:12:00,40.6,25.7,29.54,North,357,4.0,6.0,55,0.00,,,0.05,Wunderground v.1.15,2013-03-25 20:12:00,
2013-03-25 16:17:00,40.6,25.7,29.54,North,9,1.0,4.0,55,0.00,,,0.05,Wunderground v.1.15,2013-03-25 20:17:00,
2013-03-25 16:22:00,40.8,25.9,29.54,NE,43,1.0,9.0,55,0.00,,,0.05,Wunderground v.1.15,2013-03-25 20:22:00,
2013-03-25 16:27:00,40.6,25.7,29.54,North,9,7.0,7.0,55,0.00,,,0.05,Wunderground v.1.15,2013-03-25 20:27:00,
2013-03-25 16:32:00,40.6,25.7,29.54,NNE,22,1.0,9.0,55,0.00,,,0.05,Wunderground v.1.15,2013-03-25 20:32:00,
2013-03-25 16:37:00,40.6,26.1,29.54,NE,45,4.0,4.0,56,0.00,,,0.06,Wunderground v.1.15,2013-03-25 20:37:00,
2013-03-25 16:42:00,40.8,26.3,29.53,North,359,8.0,8.0,56,0.00,,,0.06,Wunderground v.1.15,2013-03-25 20:42:00,
2013-03-25 16:47:00,40.9,26.8,29.53,NNE,32,1.0,4.0,57,0.00,,,0.06,Wunderground v.1.15,2013-03-25 20:47:00,
2013-03-25 16:52:00,40.6,26.5,29.53,North,11,2.0,7.0,57,0.00,,,0.06,Wunderground v.1.15,2013-03-25 20:52:00,
2013-03-25 16:57:00,40.3,25.8,29.54,NNE,16,0.0,3.0,56,0.00,,,0.06,Wunderground v.1.15,2013-03-25 20:57:00,
2013-03-25 17:03:00,40.2,27.0,29.54,NE,38,0.0,4.0,59,0.00,,,0.06,Wunderground v.1.15,2013-03-25 21:03:00,
2013-03-25 17:08:00,40.1,26.1,29.54,NE,36,4.0,7.0,57,0.00,,,0.06,Wunderground v.1.15,2013-03-25 21:08:00,
2013-03-25 17:13:00,39.8,26.2,29.55,NE,36,2.0,7.0,58,0.00,,,0.06,Wunderground v.1.15,2013-03-25 21:13:00,
2013-03-25 17:18:00,39.6,26.0,29.55,NNE,25,0.0,2.0,58,0.00,,,0.06,Wunderground v.1.15,2013-03-25 21:18:00,
2013-03-25 17:23:00,39.3,26.6,29.55,ENE,59,2.0,6.0,60,0.00,,,0.06,Wunderground v.1.15,2013-03-25 21:23:00,
2013-03-25 17:28:00,39.3,26.6,29.55,North,359,2.0,4.0,60,0.00,,,0.06,Wunderground v.1.15,2013-03-25 21:28:00,
2013-03-25 17:33:00,39.3,26.2,29.55,NNE,15,2.0,7.0,59,0.00,,,0.06,Wunderground v.1.15,2013-03-25 21:33:00,
2013-03-25 17:39:00,39.2,26.5,29.55,North,5,7.0,7.0,60,0.00,,,0.06,Wunderground v.1.15,2013-03-25 21:39:00,
2013-03-25 17:44:00,39.2,26.9,29.55,ENE,59,6.0,9.0,61,0.00,,,0.06,Wunderground v.1.15,2013-03-25 21:44:00,
2013-03-25 17:49:00,39.1,26.8,29.55,North,357,1.0,7.0,61,0.00,,,0.06,Wunderground v.1.15,2013-03-25 21:49:00,
2013-03-25 17:54:00,38.9,26.6,29.55,NNE,18,2.0,7.0,61,0.00,,,0.06,Wunderground v.1.15,2013-03-25 21:54:00,
2013-03-25 18:00:00,38.9,26.6,29.56,North,357,0.0,4.0,61,0.00,,,0.06,Wunderground v.1.15,2013-03-25 22:00:00,
2013-03-25 18:05:00,38.8,26.9,29.56,North,1,1.0,4.0,62,0.00,,,0.06,Wunderground v.1.15,2013-03-25 22:05:00,
2013-03-25 18:10:00,38.8,26.9,29.56,NE,43,2.0,4.0,62,0.00,,,0.06,Wunderground v.1.15,2013-03-25 22:10:00,
2013-03-25 18:15:00,38.6,26.7,29.56,NE,42,0.0,4.0,62,0.00,,,0.06,Wunderground v.1.15,2013-03-25 22:15:00,
2013-03-25 18:20:00,38.6,27.1,29.56,North,359,2.0,2.0,63,0.00,,,0.06,Wunderground v.1.15,2013-03-25 22:20:00,
2013-03-25 18:25:00,38.5,27.0,29.56,North,359,0.0,2.0,63,0.00,,,0.06,Wunderground v.1.15,2013-03-25 22:25:00,
2013-03-25 18:30:00,38.3,26.8,29.56,North,359,0.0,1.0,63,0.00,,,0.06,Wunderground v.1.15,2013-03-25 22:30:00,
2013-03-25 18:35:00,38.3,27.2,29.56,North,2,0.0,0.0,64,0.00,,,0.06,Wunderground v.1.15,2013-03-25 22:35:00,
2013-03-25 18:40:00,38.3,27.2,29.56,North,2,1.0,1.0,64,0.00,,,0.07,Wunderground v.1.15,2013-03-25 22:40:00,
2013-03-25 18:45:00,38.3,27.2,29.57,North,4,1.0,1.0,64,0.00,,,0.07,Wunderground v.1.15,2013-03-25 22:45:00,
2013-03-25 18:50:00,38.2,27.5,29.57,NNE,26,1.0,4.0,65,0.00,,,0.07,Wunderground v.1.15,2013-03-25 22:50:00,
2013-03-25 18:55:00,38.0,27.3,29.57,NNE,25,0.0,1.0,65,0.00,,,0.07,Wunderground v.1.15,2013-03-25 22:55:00,
2013-03-25 19:01:00,37.9,27.5,29.57,NNE,26,1.0,2.0,66,0.00,,,0.07,Wunderground v.1.15,2013-03-25 23:01:00,
2013-03-25 19:06:00,37.8,27.8,29.57,NNE,29,1.0,1.0,67,0.00,,,0.07,Wunderground v.1.15,2013-03-25 23:06:00,
2013-03-25 19:11:00,37.8,27.8,29.57,NNE,29,0.0,2.0,67,0.00,,,0.07,Wunderground v.1.15,2013-03-25 23:11:00,
2013-03-25 19:17:00,37.6,28.0,29.57,NNE,29,0.0,0.0,68,0.00,,,0.07,Wunderground v.1.15,2013-03-25 23:17:00,
2013-03-25 19:22:00,37.5,27.9,29.57,NNE,29,0.0,1.0,68,0.00,,,0.07,Wunderground v.1.15,2013-03-25 23:22:00,
2013-03-25 19:27:00,37.3,28.1,29.57,NNE,29,0.0,0.0,69,0.00,,,0.07,Wunderground v.1.15,2013-03-25 23:27:00,
2013-03-25 19:32:00,37.3,28.4,29.57,NNE,29,0.0,1.0,70,0.00,,,0.07,Wunderground v.1.15,2013-03-25 23:32:00,
2013-03-25 19:37:00,37.2,28.3,29.57,NNE,29,0.0,0.0,70,0.00,,,0.07,Wunderground v.1.15,2013-03-25 23:37:00,
2013-03-25 19:42:00,37.0,28.1,29.57,NNE,29,0.0,0.0,70,0.00,,,0.07,Wunderground v.1.15,2013-03-25 23:42:00,
2013-03-25 19:48:00,36.9,28.0,29.57,NNE,29,0.0,0.0,70,0.00,,,0.07,Wunderground v.1.15,2013-03-25 23:48:00,
2013-03-25 19:53:00,36.6,28.4,29.57,NNE,29,0.0,0.0,72,0.00,,,0.07,Wunderground v.1.15,2013-03-25 23:53:00,
2013-03-25 19:58:00,35.9,28.4,29.58,NNE,29,0.0,1.0,74,0.00,,,0.07,Wunderground v.1.15,2013-03-25 23:58:00,
2013-03-25 20:04:00,35.9,28.4,29.58,NNE,29,0.0,1.0,74,0.00,,,0.07,Wunderground v.1.15,2013-03-26 00:04:00,
2013-03-25 20:09:00,36.0,28.2,29.58,NNE,29,0.0,0.0,73,0.00,,,0.07,Wunderground v.1.15,2013-03-26 00:09:00,
2013-03-25 20:14:00,36.2,28.4,29.58,NNE,29,0.0,0.0,73,0.00,,,0.07,Wunderground v.1.15,2013-03-26 00:14:00,
2013-03-25 20:19:00,36.0,28.5,29.58,NNE,29,0.0,0.0,74,0.00,,,0.07,Wunderground v.1.15,2013-03-26 00:19:00,
2013-03-25 20:24:00,35.8,28.6,29.58,NNE,29,0.0,0.0,75,0.00,,,0.07,Wunderground v.1.15,2013-03-26 00:24:00,
2013-03-25 20:29:00,35.5,28.0,29.58,NNE,29,0.0,0.0,74,0.00,,,0.07,Wunderground v.1.15,2013-03-26 00:29:00,
2013-03-25 20:34:00,35.0,28.5,29.58,NNE,29,0.0,0.0,77,0.00,,,0.07,Wunderground v.1.15,2013-03-26 00:34:00,
2013-03-25 20:39:00,35.0,28.2,29.58,NNE,29,0.0,0.0,76,0.00,,,0.07,Wunderground v.1.15,2013-03-26 00:39:00,
2013-03-25 20:44:00,35.2,28.4,29.59,NNE,29,0.0,0.0,76,0.00,,,0.07,Wunderground v.1.15,2013-03-26 00:44:00,
2013-03-25 20:49:00,35.3,28.2,29.59,NNE,29,0.0,0.0,75,0.00,,,0.07,Wunderground v.1.15,2013-03-26 00:49:00,
2013-03-25 20:55:00,35.2,28.1,29.59,NNE,29,0.0,0.0,75,0.00,,,0.07,Wunderground v.1.15,2013-03-26 00:55:00,
2013-03-25 21:00:00,35.0,27.9,29.59,NNE,29,0.0,0.0,75,0.00,,,0.07,Wunderground v.1.15,2013-03-26 01:00:00,
2013-03-25 21:05:00,34.9,28.1,29.59,NNE,29,0.0,0.0,76,0.00,,,0.07,Wunderground v.1.15,2013-03-26 01:05:00,
2013-03-25 21:10:00,34.9,28.1,29.59,NNE,29,0.0,0.0,76,0.00,,,0.07,Wunderground v.1.15,2013-03-26 01:10:00,
2013-03-25 21:15:00,34.9,27.8,29.58,NNE,29,0.0,0.0,75,0.00,,,0.07,Wunderground v.1.15,2013-03-26 01:15:00,
2013-03-25 21:20:00,34.7,27.3,29.58,NNE,29,0.0,0.0,74,0.00,,,0.07,Wunderground v.1.15,2013-03-26 01:20:00,
2013-03-25 21:25:00,34.7,27.3,29.58,NNE,29,0.0,0.0,74,0.00,,,0.07,Wunderground v.1.15,2013-03-26 01:25:00,
2013-03-25 21:31:00,34.4,27.9,29.58,NNE,29,0.0,0.0,77,0.00,,,0.07,Wunderground v.1.15,2013-03-26 01:31:00,
2013-03-25 21:36:00,34.4,27.9,29.58,NNE,29,0.0,0.0,77,0.00,,,0.07,Wunderground v.1.15,2013-03-26 01:36:00,
2013-03-25 21:42:00,34.1,28.0,29.58,NNE,29,0.0,0.0,78,0.00,,,0.07,Wunderground v.1.15,2013-03-26 01:42:00,
2013-03-25 21:47:00,34.0,27.5,29.58,NNE,29,0.0,0.0,77,0.00,,,0.07,Wunderground v.1.15,2013-03-26 01:47:00,
2013-03-25 21:52:00,33.7,27.3,29.58,NNE,29,0.0,0.0,77,0.00,,,0.07,Wunderground v.1.15,2013-03-26 01:52:00,
2013-03-25 21:57:00,33.5,27.4,29.58,NNE,29,0.0,0.0,78,0.00,,,0.07,Wunderground v.1.15,2013-03-26 01:57:00,
2013-03-25 22:02:00,33.5,27.4,29.58,NNE,29,0.0,0.0,78,0.00,,,0.07,Wunderground v.1.15,2013-03-26 02:02:00,
2013-03-25 22:07:00,33.5,27.1,29.58,NNE,29,0.0,0.0,77,0.00,,,0.07,Wunderground v.1.15,2013-03-26 02:07:00,
2013-03-25 22:12:00,33.5,27.4,29.58,NNE,29,0.0,0.0,78,0.00,,,0.07,Wunderground v.1.15,2013-03-26 02:12:00,
2013-03-25 22:17:00,33.5,27.1,29.58,NNE,29,0.0,0.0,77,0.00,,,0.07,Wunderground v.1.15,2013-03-26 02:17:00,
2013-03-25 22:22:00,33.2,27.4,29.58,NNE,29,0.0,0.0,79,0.00,,,0.07,Wunderground v.1.15,2013-03-26 02:22:00,
2013-03-25 22:27:00,32.9,27.7,29.58,NNE,29,0.0,0.0,81,0.00,,,0.07,Wunderground v.1.15,2013-03-26 02:27:00,
2013-03-25 22:33:00,32.7,27.8,29.58,NNE,29,0.0,0.0,82,0.00,,,0.07,Wunderground v.1.15,2013-03-26 02:33:00,
2013-03-25 22:38:00,32.7,28.1,29.58,NNE,29,0.0,0.0,83,0.00,,,0.07,Wunderground v.1.15,2013-03-26 02:38:00,
2013-03-25 22:43:00,32.7,27.8,29.58,NNE,29,0.0,0.0,82,0.00,,,0.07,Wunderground v.1.15,2013-03-26 02:43:00,
2013-03-25 22:48:00,32.8,27.9,29.58,NNE,29,0.0,0.0,82,0.00,,,0.07,Wunderground v.1.15,2013-03-26 02:48:00,
2013-03-25 22:53:00,32.8,27.6,29.58,NNE,29,0.0,0.0,81,0.00,,,0.07,Wunderground v.1.15,2013-03-26 02:53:00,
2013-03-25 22:58:00,32.5,28.2,29.57,NNE,29,0.0,0.0,84,0.00,,,0.07,Wunderground v.1.15,2013-03-26 02:58:00,
2013-03-25 23:03:00,32.5,28.2,29.57,NNE,29,0.0,0.0,84,0.00,,,0.07,Wunderground v.1.15,2013-03-26 03:03:00,
2013-03-25 23:08:00,32.7,27.8,29.57,NNE,29,0.0,0.0,82,0.00,,,0.07,Wunderground v.1.15,2013-03-26 03:08:00,
2013-03-25 23:14:00,32.7,27.8,29.57,NNE,29,0.0,0.0,82,0.00,,,0.07,Wunderground v.1.15,2013-03-26 03:14:00,
2013-03-25 23:19:00,32.5,27.6,29.57,NNE,29,0.0,0.0,82,0.00,,,0.07,Wunderground v.1.15,2013-03-26 03:19:00,
2013-03-25 23:24:00,32.4,27.8,29.57,NNE,29,0.0,0.0,83,0.00,,,0.07,Wunderground v.1.15,2013-03-26 03:24:00,
2013-03-25 23:29:00,32.4,28.1,29.57,NNE,29,0.0,0.0,84,0.00,,,0.07,Wunderground v.1.15,2013-03-26 03:29:00,
2013-03-25 23:34:00,32.4,27.5,29.57,NNE,29,0.0,0.0,82,0.00,,,0.07,Wunderground v.1.15,2013-03-26 03:34:00,
2013-03-25 23:39:00,32.4,26.9,29.57,NNE,29,0.0,0.0,80,0.00,,,0.07,Wunderground v.1.15,2013-03-26 03:39:00,
2013-03-25 23:44:00,32.2,27.6,29.57,NNE,29,0.0,0.0,83,0.00,,,0.07,Wunderground v.1.15,2013-03-26 03:44:00,
2013-03-25 23:50:00,31.9,27.6,29.57,NNE,29,0.0,0.0,84,0.00,,,0.07,Wunderground v.1.15,2013-03-26 03:50:00,
2013-03-25 23:55:00,31.9,27.9,29.57,NNE,29,0.0,0.0,85,0.00,,,0.07,Wunderground v.1.15,2013-03-26 03:55:00,